sensor_id;sensor_type;location;lat;lon;timestamp;pressure;altitude;pressure_sealevel;temperature
70533;BMP180;58088;51.186;17.130;2024-02-23T00:00:55;97912.80;;;12.58
70533;BMP180;58088;51.186;17.130;2024-02-23T00:03:21;97904.40;;;12.50
70533;BMP180;58088;51.186;17.130;2024-02-23T00:05:47;97908.40;;;12.54
70533;BMP180;58088;51.186;17.130;2024-02-23T00:08:14;97903.00;;;12.50
70533;BMP180;58088;51.186;17.130;2024-02-23T00:10:40;97901.60;;;12.50
70533;BMP180;58088;51.186;17.130;2024-02-23T00:13:06;97901.80;;;12.50
70533;BMP180;58088;51.186;17.130;2024-02-23T00:15:32;97900.20;;;12.50
70533;BMP180;58088;51.186;17.130;2024-02-23T00:17:58;97905.20;;;12.50
70533;BMP180;58088;51.186;17.130;2024-02-23T00:20:24;97905.40;;;12.50
70533;BMP180;58088;51.186;17.130;2024-02-23T00:22:50;97914.80;;;12.60
70533;BMP180;58088;51.186;17.130;2024-02-23T00:25:16;97911.20;;;12.60
70533;BMP180;58088;51.186;17.130;2024-02-23T00:27:43;97922.00;;;12.60
70533;BMP180;58088;51.186;17.130;2024-02-23T00:30:11;97923.40;;;12.68
70533;BMP180;58088;51.186;17.130;2024-02-23T00:32:37;97924.80;;;12.70
70533;BMP180;58088;51.186;17.130;2024-02-23T00:35:03;97926.00;;;12.70
70533;BMP180;58088;51.186;17.130;2024-02-23T00:37:29;97928.80;;;12.80
70533;BMP180;58088;51.186;17.130;2024-02-23T00:40:04;97934.60;;;12.80
70533;BMP180;58088;51.186;17.130;2024-02-23T00:42:31;97932.00;;;12.80
70533;BMP180;58088;51.186;17.130;2024-02-23T00:44:57;97929.80;;;12.80
70533;BMP180;58088;51.186;17.130;2024-02-23T00:47:24;97937.60;;;12.80
70533;BMP180;58088;51.186;17.130;2024-02-23T00:49:50;97935.40;;;12.80
70533;BMP180;58088;51.186;17.130;2024-02-23T00:52:16;97930.00;;;12.80
70533;BMP180;58088;51.186;17.130;2024-02-23T00:54:42;97935.00;;;12.80
70533;BMP180;58088;51.186;17.130;2024-02-23T00:57:08;97938.40;;;12.82
70533;BMP180;58088;51.186;17.130;2024-02-23T00:59:34;97927.80;;;12.90
70533;BMP180;58088;51.186;17.130;2024-02-23T01:02:01;97923.80;;;12.90
70533;BMP180;58088;51.186;17.130;2024-02-23T01:04:27;97923.60;;;12.90
70533;BMP180;58088;51.186;17.130;2024-02-23T01:06:53;97920.20;;;12.90
70533;BMP180;58088;51.186;17.130;2024-02-23T01:09:19;97916.00;;;12.90
70533;BMP180;58088;51.186;17.130;2024-02-23T01:11:47;97916.40;;;12.90
70533;BMP180;58088;51.186;17.130;2024-02-23T01:14:14;97921.40;;;12.90
70533;BMP180;58088;51.186;17.130;2024-02-23T01:16:40;97920.80;;;12.90
70533;BMP180;58088;51.186;17.130;2024-02-23T01:19:06;97916.80;;;12.92
70533;BMP180;58088;51.186;17.130;2024-02-23T01:21:33;97911.60;;;13.00
70533;BMP180;58088;51.186;17.130;2024-02-23T01:23:59;97910.40;;;13.00
70533;BMP180;58088;51.186;17.130;2024-02-23T01:26:26;97919.80;;;13.04
70533;BMP180;58088;51.186;17.130;2024-02-23T01:28:53;97920.40;;;13.10
70533;BMP180;58088;51.186;17.130;2024-02-23T01:31:20;97921.00;;;13.10
70533;BMP180;58088;51.186;17.130;2024-02-23T01:33:46;97922.00;;;13.10
70533;BMP180;58088;51.186;17.130;2024-02-23T01:36:13;97924.00;;;13.10
70533;BMP180;58088;51.186;17.130;2024-02-23T01:38:39;97916.20;;;13.10
70533;BMP180;58088;51.186;17.130;2024-02-23T01:41:05;97914.60;;;13.10
70533;BMP180;58088;51.186;17.130;2024-02-23T01:43:32;97902.40;;;13.10
70533;BMP180;58088;51.186;17.130;2024-02-23T01:45:58;97898.20;;;13.10
70533;BMP180;58088;51.186;17.130;2024-02-23T01:48:26;97894.20;;;13.10
70533;BMP180;58088;51.186;17.130;2024-02-23T01:50:53;97881.00;;;13.04
70533;BMP180;58088;51.186;17.130;2024-02-23T01:53:20;97890.60;;;13.10
70533;BMP180;58088;51.186;17.130;2024-02-23T01:55:47;97891.80;;;13.10
70533;BMP180;58088;51.186;17.130;2024-02-23T01:58:15;97891.80;;;13.10
70533;BMP180;58088;51.186;17.130;2024-02-23T02:00:41;97878.20;;;13.10
70533;BMP180;58088;51.186;17.130;2024-02-23T02:03:07;97875.60;;;13.10
70533;BMP180;58088;51.186;17.130;2024-02-23T02:05:36;97873.00;;;13.10
70533;BMP180;58088;51.186;17.130;2024-02-23T02:08:04;97880.40;;;13.10
70533;BMP180;58088;51.186;17.130;2024-02-23T02:10:31;97884.40;;;13.10
70533;BMP180;58088;51.186;17.130;2024-02-23T02:13:05;97877.80;;;13.10
70533;BMP180;58088;51.186;17.130;2024-02-23T02:15:31;97869.80;;;13.10
70533;BMP180;58088;51.186;17.130;2024-02-23T02:17:57;97873.60;;;13.20
70533;BMP180;58088;51.186;17.130;2024-02-23T02:20:25;97908.00;;;13.20
70533;BMP180;58088;51.186;17.130;2024-02-23T02:22:54;97903.00;;;13.20
70533;BMP180;58088;51.186;17.130;2024-02-23T02:25:20;97909.80;;;13.20
70533;BMP180;58088;51.186;17.130;2024-02-23T02:27:47;97913.00;;;13.20
70533;BMP180;58088;51.186;17.130;2024-02-23T02:30:13;97917.00;;;13.20
70533;BMP180;58088;51.186;17.130;2024-02-23T02:32:39;97912.40;;;13.20
70533;BMP180;58088;51.186;17.130;2024-02-23T02:35:06;97911.00;;;13.20
70533;BMP180;58088;51.186;17.130;2024-02-23T02:37:34;97926.60;;;13.20
70533;BMP180;58088;51.186;17.130;2024-02-23T02:40:00;97929.80;;;13.20
70533;BMP180;58088;51.186;17.130;2024-02-23T02:42:26;97930.40;;;13.20
70533;BMP180;58088;51.186;17.130;2024-02-23T02:44:54;97924.20;;;13.20
70533;BMP180;58088;51.186;17.130;2024-02-23T02:47:20;97928.20;;;13.20
70533;BMP180;58088;51.186;17.130;2024-02-23T02:49:47;97931.20;;;13.20
70533;BMP180;58088;51.186;17.130;2024-02-23T02:52:14;97927.80;;;13.20
70533;BMP180;58088;51.186;17.130;2024-02-23T02:54:40;97935.40;;;13.20
70533;BMP180;58088;51.186;17.130;2024-02-23T02:57:07;97938.60;;;13.20
70533;BMP180;58088;51.186;17.130;2024-02-23T02:59:36;97938.20;;;13.20
70533;BMP180;58088;51.186;17.130;2024-02-23T03:02:13;97933.40;;;13.20
70533;BMP180;58088;51.186;17.130;2024-02-23T03:04:58;97946.40;;;13.20
70533;BMP180;58088;51.186;17.130;2024-02-23T03:07:24;97942.40;;;13.20
70533;BMP180;58088;51.186;17.130;2024-02-23T03:09:51;97952.00;;;13.20
70533;BMP180;58088;51.186;17.130;2024-02-23T03:12:18;97947.40;;;13.20
70533;BMP180;58088;51.186;17.130;2024-02-23T03:14:44;97954.80;;;13.20
70533;BMP180;58088;51.186;17.130;2024-02-23T03:17:10;97954.40;;;13.20
70533;BMP180;58088;51.186;17.130;2024-02-23T03:19:37;97950.60;;;13.20
70533;BMP180;58088;51.186;17.130;2024-02-23T03:22:05;97950.00;;;13.20
70533;BMP180;58088;51.186;17.130;2024-02-23T03:24:31;97957.20;;;13.24
70533;BMP180;58088;51.186;17.130;2024-02-23T03:26:57;97966.40;;;13.30
70533;BMP180;58088;51.186;17.130;2024-02-23T03:29:23;97969.60;;;13.30
70533;BMP180;58088;51.186;17.130;2024-02-23T03:31:53;97971.20;;;13.30
70533;BMP180;58088;51.186;17.130;2024-02-23T03:34:19;97983.40;;;13.30
70533;BMP180;58088;51.186;17.130;2024-02-23T03:36:45;97993.40;;;13.30
70533;BMP180;58088;51.186;17.130;2024-02-23T03:39:12;98003.80;;;13.30
70533;BMP180;58088;51.186;17.130;2024-02-23T03:41:38;98014.80;;;13.30
70533;BMP180;58088;51.186;17.130;2024-02-23T03:44:04;98017.00;;;13.30
70533;BMP180;58088;51.186;17.130;2024-02-23T03:46:30;98016.40;;;13.40
70533;BMP180;58088;51.186;17.130;2024-02-23T03:48:56;98026.20;;;13.38
70533;BMP180;58088;51.186;17.130;2024-02-23T03:51:23;98023.80;;;13.32
70533;BMP180;58088;51.186;17.130;2024-02-23T03:53:50;98027.60;;;13.30
70533;BMP180;58088;51.186;17.130;2024-02-23T03:56:16;98025.80;;;13.30
70533;BMP180;58088;51.186;17.130;2024-02-23T03:58:43;98034.20;;;13.30
70533;BMP180;58088;51.186;17.130;2024-02-23T04:01:09;98028.00;;;13.30
70533;BMP180;58088;51.186;17.130;2024-02-23T04:03:35;98040.40;;;13.30
70533;BMP180;58088;51.186;17.130;2024-02-23T04:06:01;98045.60;;;13.30
70533;BMP180;58088;51.186;17.130;2024-02-23T04:08:28;98050.40;;;13.30
70533;BMP180;58088;51.186;17.130;2024-02-23T04:10:54;98052.40;;;13.30
70533;BMP180;58088;51.186;17.130;2024-02-23T04:13:20;98056.60;;;13.30
70533;BMP180;58088;51.186;17.130;2024-02-23T04:15:47;98063.20;;;13.30
70533;BMP180;58088;51.186;17.130;2024-02-23T04:18:13;98064.00;;;13.30
70533;BMP180;58088;51.186;17.130;2024-02-23T04:20:39;98071.60;;;13.30
70533;BMP180;58088;51.186;17.130;2024-02-23T04:23:06;98070.40;;;13.22
70533;BMP180;58088;51.186;17.130;2024-02-23T04:25:32;98066.00;;;13.20
70533;BMP180;58088;51.186;17.130;2024-02-23T04:27:58;98067.60;;;13.20
70533;BMP180;58088;51.186;17.130;2024-02-23T04:30:24;98072.60;;;13.20
70533;BMP180;58088;51.186;17.130;2024-02-23T04:32:50;98064.80;;;13.20
70533;BMP180;58088;51.186;17.130;2024-02-23T04:35:16;98071.80;;;13.20
70533;BMP180;58088;51.186;17.130;2024-02-23T04:37:44;98074.20;;;13.20
70533;BMP180;58088;51.186;17.130;2024-02-23T04:40:11;98074.40;;;13.20
70533;BMP180;58088;51.186;17.130;2024-02-23T04:42:37;98081.40;;;13.20
70533;BMP180;58088;51.186;17.130;2024-02-23T04:45:05;98077.60;;;13.20
70533;BMP180;58088;51.186;17.130;2024-02-23T04:47:32;98078.00;;;13.20
70533;BMP180;58088;51.186;17.130;2024-02-23T04:49:58;98072.80;;;13.20
70533;BMP180;58088;51.186;17.130;2024-02-23T04:52:25;98070.60;;;13.20
70533;BMP180;58088;51.186;17.130;2024-02-23T04:54:51;98074.40;;;13.20
70533;BMP180;58088;51.186;17.130;2024-02-23T04:57:17;98080.00;;;13.20
70533;BMP180;58088;51.186;17.130;2024-02-23T04:59:43;98085.40;;;13.20
70533;BMP180;58088;51.186;17.130;2024-02-23T05:02:34;98087.60;;;13.30
70533;BMP180;58088;51.186;17.130;2024-02-23T05:05:03;98090.20;;;13.28
70533;BMP180;58088;51.186;17.130;2024-02-23T05:07:31;98099.80;;;13.30
70533;BMP180;58088;51.186;17.130;2024-02-23T05:09:58;98104.80;;;13.30
70533;BMP180;58088;51.186;17.130;2024-02-23T05:12:24;98111.80;;;13.30
70533;BMP180;58088;51.186;17.130;2024-02-23T05:14:50;98108.60;;;13.30
70533;BMP180;58088;51.186;17.130;2024-02-23T05:17:16;98114.40;;;13.30
70533;BMP180;58088;51.186;17.130;2024-02-23T05:19:43;98119.60;;;13.30
70533;BMP180;58088;51.186;17.130;2024-02-23T05:22:10;98128.40;;;13.30
70533;BMP180;58088;51.186;17.130;2024-02-23T05:24:36;98135.00;;;13.30
70533;BMP180;58088;51.186;17.130;2024-02-23T05:27:02;98139.20;;;13.30
70533;BMP180;58088;51.186;17.130;2024-02-23T05:29:29;98137.80;;;13.30
70533;BMP180;58088;51.186;17.130;2024-02-23T05:31:55;98138.80;;;13.30
70533;BMP180;58088;51.186;17.130;2024-02-23T05:34:21;98145.20;;;13.30
70533;BMP180;58088;51.186;17.130;2024-02-23T05:36:48;98159.20;;;13.30
70533;BMP180;58088;51.186;17.130;2024-02-23T05:39:14;98165.80;;;13.34
70533;BMP180;58088;51.186;17.130;2024-02-23T05:41:44;98169.60;;;13.36
70533;BMP180;58088;51.186;17.130;2024-02-23T05:44:10;98177.20;;;13.30
70533;BMP180;58088;51.186;17.130;2024-02-23T05:46:37;98179.60;;;13.30
70533;BMP180;58088;51.186;17.130;2024-02-23T05:49:03;98175.40;;;13.30
70533;BMP180;58088;51.186;17.130;2024-02-23T05:51:32;98180.00;;;13.30
70533;BMP180;58088;51.186;17.130;2024-02-23T05:53:58;98182.60;;;13.30
70533;BMP180;58088;51.186;17.130;2024-02-23T05:56:24;98196.60;;;13.30
70533;BMP180;58088;51.186;17.130;2024-02-23T05:58:51;98199.80;;;13.30
70533;BMP180;58088;51.186;17.130;2024-02-23T06:01:18;98199.80;;;13.30
70533;BMP180;58088;51.186;17.130;2024-02-23T06:03:45;98202.40;;;13.30
70533;BMP180;58088;51.186;17.130;2024-02-23T06:06:11;98207.80;;;13.30
70533;BMP180;58088;51.186;17.130;2024-02-23T06:08:38;98209.40;;;13.30
70533;BMP180;58088;51.186;17.130;2024-02-23T06:11:04;98213.60;;;13.30
70533;BMP180;58088;51.186;17.130;2024-02-23T06:13:31;98221.40;;;13.30
70533;BMP180;58088;51.186;17.130;2024-02-23T06:15:57;98225.80;;;13.30
70533;BMP180;58088;51.186;17.130;2024-02-23T06:18:23;98232.00;;;13.30
70533;BMP180;58088;51.186;17.130;2024-02-23T06:20:49;98234.60;;;13.30
70533;BMP180;58088;51.186;17.130;2024-02-23T06:23:16;98239.00;;;13.30
70533;BMP180;58088;51.186;17.130;2024-02-23T06:25:43;98245.40;;;13.30
70533;BMP180;58088;51.186;17.130;2024-02-23T06:28:10;98253.60;;;13.30
70533;BMP180;58088;51.186;17.130;2024-02-23T06:30:36;98256.60;;;13.30
70533;BMP180;58088;51.186;17.130;2024-02-23T06:33:03;98259.40;;;13.30
70533;BMP180;58088;51.186;17.130;2024-02-23T06:35:31;98262.80;;;13.30
70533;BMP180;58088;51.186;17.130;2024-02-23T06:37:57;98262.20;;;13.30
70533;BMP180;58088;51.186;17.130;2024-02-23T06:40:24;98274.20;;;13.32
70533;BMP180;58088;51.186;17.130;2024-02-23T06:42:50;98281.00;;;13.30
70533;BMP180;58088;51.186;17.130;2024-02-23T06:45:16;98277.60;;;13.30
70533;BMP180;58088;51.186;17.130;2024-02-23T06:47:44;98283.80;;;13.30
70533;BMP180;58088;51.186;17.130;2024-02-23T06:50:11;98288.20;;;13.34
70533;BMP180;58088;51.186;17.130;2024-02-23T06:52:37;98294.00;;;13.32
70533;BMP180;58088;51.186;17.130;2024-02-23T06:55:04;98302.40;;;13.40
70533;BMP180;58088;51.186;17.130;2024-02-23T06:57:31;98301.20;;;13.40
70533;BMP180;58088;51.186;17.130;2024-02-23T06:59:57;98303.60;;;13.40
70533;BMP180;58088;51.186;17.130;2024-02-23T07:02:23;98311.40;;;13.40
70533;BMP180;58088;51.186;17.130;2024-02-23T07:04:49;98307.00;;;13.40
70533;BMP180;58088;51.186;17.130;2024-02-23T07:07:16;98310.60;;;13.40
70533;BMP180;58088;51.186;17.130;2024-02-23T07:09:42;98309.00;;;13.40
70533;BMP180;58088;51.186;17.130;2024-02-23T07:12:08;98310.40;;;13.40
70533;BMP180;58088;51.186;17.130;2024-02-23T07:14:37;98314.20;;;13.40
70533;BMP180;58088;51.186;17.130;2024-02-23T07:17:04;98316.00;;;13.50
70533;BMP180;58088;51.186;17.130;2024-02-23T07:19:30;98324.00;;;13.48
70533;BMP180;58088;51.186;17.130;2024-02-23T07:21:56;98331.20;;;13.48
70533;BMP180;58088;51.186;17.130;2024-02-23T07:24:22;98330.60;;;13.50
70533;BMP180;58088;51.186;17.130;2024-02-23T07:26:48;98327.40;;;13.50
70533;BMP180;58088;51.186;17.130;2024-02-23T07:29:14;98334.20;;;13.50
70533;BMP180;58088;51.186;17.130;2024-02-23T07:31:40;98338.60;;;13.50
70533;BMP180;58088;51.186;17.130;2024-02-23T07:34:07;98336.40;;;13.50
70533;BMP180;58088;51.186;17.130;2024-02-23T07:36:34;98338.80;;;13.50
70533;BMP180;58088;51.186;17.130;2024-02-23T07:39:01;98341.60;;;13.58
70533;BMP180;58088;51.186;17.130;2024-02-23T07:41:27;98341.60;;;13.60
70533;BMP180;58088;51.186;17.130;2024-02-23T07:43:53;98343.60;;;13.60
70533;BMP180;58088;51.186;17.130;2024-02-23T07:46:19;98342.40;;;13.60
70533;BMP180;58088;51.186;17.130;2024-02-23T07:48:48;98344.40;;;13.60
70533;BMP180;58088;51.186;17.130;2024-02-23T07:51:14;98348.20;;;13.60
70533;BMP180;58088;51.186;17.130;2024-02-23T07:53:41;98356.80;;;13.64
70533;BMP180;58088;51.186;17.130;2024-02-23T07:56:10;98368.40;;;13.64
70533;BMP180;58088;51.186;17.130;2024-02-23T07:58:36;98368.80;;;13.64
70533;BMP180;58088;51.186;17.130;2024-02-23T08:01:02;98369.00;;;13.70
70533;BMP180;58088;51.186;17.130;2024-02-23T08:03:29;98378.00;;;13.70
70533;BMP180;58088;51.186;17.130;2024-02-23T08:05:55;98380.40;;;13.70
70533;BMP180;58088;51.186;17.130;2024-02-23T08:08:21;98386.60;;;13.70
70533;BMP180;58088;51.186;17.130;2024-02-23T08:10:49;98391.60;;;13.80
70533;BMP180;58088;51.186;17.130;2024-02-23T08:13:15;98390.60;;;13.80
70533;BMP180;58088;51.186;17.130;2024-02-23T08:15:44;98393.40;;;13.90
70533;BMP180;58088;51.186;17.130;2024-02-23T08:18:10;98406.00;;;13.90
70533;BMP180;58088;51.186;17.130;2024-02-23T08:20:36;98409.60;;;13.94
70533;BMP180;58088;51.186;17.130;2024-02-23T08:23:03;98413.60;;;14.00
70533;BMP180;58088;51.186;17.130;2024-02-23T08:25:29;98416.60;;;14.00
70533;BMP180;58088;51.186;17.130;2024-02-23T08:27:56;98413.40;;;14.10
70533;BMP180;58088;51.186;17.130;2024-02-23T08:30:23;98413.00;;;14.10
70533;BMP180;58088;51.186;17.130;2024-02-23T08:32:49;98415.00;;;14.20
70533;BMP180;58088;51.186;17.130;2024-02-23T08:35:15;98418.00;;;14.20
70533;BMP180;58088;51.186;17.130;2024-02-23T08:37:41;98422.80;;;14.30
70533;BMP180;58088;51.186;17.130;2024-02-23T08:40:09;98430.40;;;14.38
70533;BMP180;58088;51.186;17.130;2024-02-23T08:42:35;98432.80;;;14.40
70533;BMP180;58088;51.186;17.130;2024-02-23T08:45:01;98441.20;;;14.40
70533;BMP180;58088;51.186;17.130;2024-02-23T08:47:28;98447.80;;;14.30
70533;BMP180;58088;51.186;17.130;2024-02-23T08:49:58;98453.60;;;14.30
70533;BMP180;58088;51.186;17.130;2024-02-23T08:52:24;98463.20;;;14.30
70533;BMP180;58088;51.186;17.130;2024-02-23T08:54:52;98477.20;;;14.32
70533;BMP180;58088;51.186;17.130;2024-02-23T08:57:18;98472.60;;;14.30
70533;BMP180;58088;51.186;17.130;2024-02-23T08:59:46;98481.60;;;14.30
70533;BMP180;58088;51.186;17.130;2024-02-23T09:02:13;98488.40;;;14.40
70533;BMP180;58088;51.186;17.130;2024-02-23T09:04:39;98493.20;;;14.40
70533;BMP180;58088;51.186;17.130;2024-02-23T09:07:06;98498.00;;;14.40
70533;BMP180;58088;51.186;17.130;2024-02-23T09:09:32;98499.60;;;14.44
70533;BMP180;58088;51.186;17.130;2024-02-23T09:11:59;98500.00;;;14.50
70533;BMP180;58088;51.186;17.130;2024-02-23T09:14:25;98512.80;;;14.50
70533;BMP180;58088;51.186;17.130;2024-02-23T09:16:52;98514.80;;;14.46
70533;BMP180;58088;51.186;17.130;2024-02-23T09:19:19;98519.20;;;14.50
70533;BMP180;58088;51.186;17.130;2024-02-23T09:21:47;98522.00;;;14.50
70533;BMP180;58088;51.186;17.130;2024-02-23T09:24:13;98529.40;;;14.50
70533;BMP180;58088;51.186;17.130;2024-02-23T09:26:40;98524.20;;;14.60
70533;BMP180;58088;51.186;17.130;2024-02-23T09:29:06;98528.20;;;14.60
70533;BMP180;58088;51.186;17.130;2024-02-23T09:31:33;98531.80;;;14.58
70533;BMP180;58088;51.186;17.130;2024-02-23T09:33:59;98543.00;;;14.60
70533;BMP180;58088;51.186;17.130;2024-02-23T09:36:26;98545.40;;;14.60
70533;BMP180;58088;51.186;17.130;2024-02-23T09:38:52;98542.60;;;14.60
70533;BMP180;58088;51.186;17.130;2024-02-23T09:41:23;98553.80;;;14.60
70533;BMP180;58088;51.186;17.130;2024-02-23T09:43:50;98557.20;;;14.60
70533;BMP180;58088;51.186;17.130;2024-02-23T09:46:19;98558.00;;;14.60
70533;BMP180;58088;51.186;17.130;2024-02-23T09:48:48;98561.40;;;14.60
70533;BMP180;58088;51.186;17.130;2024-02-23T09:51:15;98568.40;;;14.60
70533;BMP180;58088;51.186;17.130;2024-02-23T09:53:42;98571.80;;;14.64
70533;BMP180;58088;51.186;17.130;2024-02-23T09:56:10;98575.00;;;14.70
70533;BMP180;58088;51.186;17.130;2024-02-23T09:58:37;98575.20;;;14.70
70533;BMP180;58088;51.186;17.130;2024-02-23T10:01:05;98575.80;;;14.70
70533;BMP180;58088;51.186;17.130;2024-02-23T10:03:31;98581.80;;;14.70
70533;BMP180;58088;51.186;17.130;2024-02-23T10:05:58;98584.60;;;14.60
70533;BMP180;58088;51.186;17.130;2024-02-23T10:08:25;98586.20;;;14.60
70533;BMP180;58088;51.186;17.130;2024-02-23T10:10:51;98590.60;;;14.50
70533;BMP180;58088;51.186;17.130;2024-02-23T10:13:19;98596.60;;;14.50
70533;BMP180;58088;51.186;17.130;2024-02-23T10:15:53;98601.40;;;14.50
70533;BMP180;58088;51.186;17.130;2024-02-23T10:18:19;98604.80;;;14.50
70533;BMP180;58088;51.186;17.130;2024-02-23T10:20:49;98611.40;;;14.50
70533;BMP180;58088;51.186;17.130;2024-02-23T10:23:17;98610.00;;;14.50
70533;BMP180;58088;51.186;17.130;2024-02-23T10:25:45;98616.80;;;14.50
70533;BMP180;58088;51.186;17.130;2024-02-23T10:28:12;98618.60;;;14.60
70533;BMP180;58088;51.186;17.130;2024-02-23T10:30:38;98623.40;;;14.60
70533;BMP180;58088;51.186;17.130;2024-02-23T10:33:05;98616.80;;;14.70
70533;BMP180;58088;51.186;17.130;2024-02-23T10:35:32;98626.80;;;14.70
70533;BMP180;58088;51.186;17.130;2024-02-23T10:38:08;98628.60;;;14.60
70533;BMP180;58088;51.186;17.130;2024-02-23T10:40:39;98625.80;;;14.70
70533;BMP180;58088;51.186;17.130;2024-02-23T10:43:20;98633.00;;;14.70
70533;BMP180;58088;51.186;17.130;2024-02-23T10:45:49;98626.40;;;14.70
70533;BMP180;58088;51.186;17.130;2024-02-23T10:48:16;98630.60;;;14.70
70533;BMP180;58088;51.186;17.130;2024-02-23T10:50:43;98633.40;;;14.70
70533;BMP180;58088;51.186;17.130;2024-02-23T10:53:11;98633.20;;;14.70
70533;BMP180;58088;51.186;17.130;2024-02-23T10:55:37;98640.00;;;14.60
70533;BMP180;58088;51.186;17.130;2024-02-23T10:58:06;98640.80;;;14.70
70533;BMP180;58088;51.186;17.130;2024-02-23T11:00:38;98636.60;;;14.70
70533;BMP180;58088;51.186;17.130;2024-02-23T11:03:06;98634.40;;;14.70
70533;BMP180;58088;51.186;17.130;2024-02-23T11:05:33;98632.20;;;14.70
70533;BMP180;58088;51.186;17.130;2024-02-23T11:07:59;98629.80;;;14.70
70533;BMP180;58088;51.186;17.130;2024-02-23T11:10:26;98628.80;;;14.74
70533;BMP180;58088;51.186;17.130;2024-02-23T11:13:08;98634.60;;;14.80
70533;BMP180;58088;51.186;17.130;2024-02-23T11:15:34;98646.60;;;14.80
70533;BMP180;58088;51.186;17.130;2024-02-23T11:18:22;98653.00;;;14.88
70533;BMP180;58088;51.186;17.130;2024-02-23T11:20:59;98653.20;;;14.86
70533;BMP180;58088;51.186;17.130;2024-02-23T11:23:26;98650.20;;;14.90
70533;BMP180;58088;51.186;17.130;2024-02-23T11:26:04;98648.20;;;14.90
70533;BMP180;58088;51.186;17.130;2024-02-23T11:28:32;98640.60;;;14.98
70533;BMP180;58088;51.186;17.130;2024-02-23T11:30:58;98630.60;;;15.10
70533;BMP180;58088;51.186;17.130;2024-02-23T11:33:29;98627.00;;;15.30
70533;BMP180;58088;51.186;17.130;2024-02-23T11:36:09;98626.40;;;15.36
70533;BMP180;58088;51.186;17.130;2024-02-23T11:38:38;98626.00;;;15.40
70533;BMP180;58088;51.186;17.130;2024-02-23T11:41:04;98615.60;;;15.50
70533;BMP180;58088;51.186;17.130;2024-02-23T11:43:34;98614.20;;;15.56
70533;BMP180;58088;51.186;17.130;2024-02-23T11:46:00;98618.20;;;15.54
70533;BMP180;58088;51.186;17.130;2024-02-23T11:48:27;98619.00;;;15.60
70533;BMP180;58088;51.186;17.130;2024-02-23T11:50:53;98610.60;;;15.70
70533;BMP180;58088;51.186;17.130;2024-02-23T11:53:20;98611.20;;;15.80
70533;BMP180;58088;51.186;17.130;2024-02-23T11:55:48;98616.60;;;15.70
70533;BMP180;58088;51.186;17.130;2024-02-23T11:58:15;98623.40;;;15.70
70533;BMP180;58088;51.186;17.130;2024-02-23T12:00:41;98615.80;;;15.70
70533;BMP180;58088;51.186;17.130;2024-02-23T12:03:07;98618.20;;;15.76
70533;BMP180;58088;51.186;17.130;2024-02-23T12:05:34;98628.60;;;15.80
70533;BMP180;58088;51.186;17.130;2024-02-23T12:08:00;98642.20;;;15.80
70533;BMP180;58088;51.186;17.130;2024-02-23T12:10:27;98641.80;;;15.80
70533;BMP180;58088;51.186;17.130;2024-02-23T12:12:54;98645.40;;;15.80
70533;BMP180;58088;51.186;17.130;2024-02-23T12:15:21;98653.00;;;15.72
70533;BMP180;58088;51.186;17.130;2024-02-23T12:17:49;98655.80;;;15.70
70533;BMP180;58088;51.186;17.130;2024-02-23T12:20:16;98661.80;;;15.56
70533;BMP180;58088;51.186;17.130;2024-02-23T12:22:42;98671.00;;;15.50
70533;BMP180;58088;51.186;17.130;2024-02-23T12:25:08;98672.00;;;15.40
70533;BMP180;58088;51.186;17.130;2024-02-23T12:27:35;98678.60;;;15.40
70533;BMP180;58088;51.186;17.130;2024-02-23T12:30:01;98686.20;;;15.40
70533;BMP180;58088;51.186;17.130;2024-02-23T12:32:27;98688.40;;;15.40
70533;BMP180;58088;51.186;17.130;2024-02-23T12:34:54;98690.20;;;15.34
70533;BMP180;58088;51.186;17.130;2024-02-23T12:37:21;98691.00;;;15.30
70533;BMP180;58088;51.186;17.130;2024-02-23T12:39:50;98693.60;;;15.30
70533;BMP180;58088;51.186;17.130;2024-02-23T12:42:18;98695.00;;;15.30
70533;BMP180;58088;51.186;17.130;2024-02-23T12:44:45;98701.20;;;15.20
70533;BMP180;58088;51.186;17.130;2024-02-23T12:47:11;98705.20;;;15.20
70533;BMP180;58088;51.186;17.130;2024-02-23T12:49:37;98710.60;;;15.20
70533;BMP180;58088;51.186;17.130;2024-02-23T12:52:04;98711.00;;;15.10
70533;BMP180;58088;51.186;17.130;2024-02-23T12:54:30;98719.20;;;15.06
70533;BMP180;58088;51.186;17.130;2024-02-23T12:56:56;98716.60;;;15.00
70533;BMP180;58088;51.186;17.130;2024-02-23T12:59:23;98715.40;;;15.00
70533;BMP180;58088;51.186;17.130;2024-02-23T13:01:49;98716.00;;;15.00
70533;BMP180;58088;51.186;17.130;2024-02-23T13:04:15;98721.20;;;15.06
70533;BMP180;58088;51.186;17.130;2024-02-23T13:06:41;98721.40;;;15.00
70533;BMP180;58088;51.186;17.130;2024-02-23T13:09:08;98721.40;;;14.90
70533;BMP180;58088;51.186;17.130;2024-02-23T13:11:37;98719.40;;;14.80
70533;BMP180;58088;51.186;17.130;2024-02-23T13:14:04;98715.20;;;14.70
70533;BMP180;58088;51.186;17.130;2024-02-23T13:16:30;98713.80;;;14.60
70533;BMP180;58088;51.186;17.130;2024-02-23T13:18:57;98712.80;;;14.50
70533;BMP180;58088;51.186;17.130;2024-02-23T13:21:23;98717.80;;;14.42
70533;BMP180;58088;51.186;17.130;2024-02-23T13:23:50;98710.00;;;14.40
70533;BMP180;58088;51.186;17.130;2024-02-23T13:26:16;98711.60;;;14.30
70533;BMP180;58088;51.186;17.130;2024-02-23T13:28:43;98713.40;;;14.30
70533;BMP180;58088;51.186;17.130;2024-02-23T13:31:10;98714.20;;;14.30
70533;BMP180;58088;51.186;17.130;2024-02-23T13:33:36;98709.80;;;14.30
70533;BMP180;58088;51.186;17.130;2024-02-23T13:36:03;98714.60;;;14.20
70533;BMP180;58088;51.186;17.130;2024-02-23T13:38:30;98713.80;;;14.20
70533;BMP180;58088;51.186;17.130;2024-02-23T13:40:57;98712.20;;;14.20
70533;BMP180;58088;51.186;17.130;2024-02-23T13:43:23;98714.00;;;14.20
70533;BMP180;58088;51.186;17.130;2024-02-23T13:45:52;98717.60;;;14.10
70533;BMP180;58088;51.186;17.130;2024-02-23T13:48:19;98719.80;;;14.00
70533;BMP180;58088;51.186;17.130;2024-02-23T13:50:47;98719.40;;;13.98
70533;BMP180;58088;51.186;17.130;2024-02-23T13:53:14;98720.80;;;13.90
70533;BMP180;58088;51.186;17.130;2024-02-23T13:55:41;98717.60;;;13.80